createdAt,value
2019-05-29T00:02:24.938Z,88.98
2019-05-29T00:04:57.802Z,89.41
2019-05-29T00:07:33.665Z,89.65
2019-05-29T00:10:08.957Z,89.46
2019-05-29T00:12:42.579Z,89.46
2019-05-29T00:15:19.152Z,89.73
2019-05-29T00:17:51.794Z,90.28
2019-05-29T00:20:24.411Z,90.95
2019-05-29T00:22:56.955Z,91.10
2019-05-29T00:25:29.937Z,91.26
2019-05-29T00:28:03.140Z,91.43
2019-05-29T00:30:37.010Z,91.33
2019-05-29T00:33:10.150Z,91.20
2019-05-29T00:35:44.108Z,91.27
2019-05-29T00:38:18.633Z,91.47
2019-05-29T00:40:51.921Z,91.76
2019-05-29T00:43:24.528Z,91.86
2019-05-29T00:45:59.738Z,92.26
2019-05-29T00:48:32.842Z,92.46
2019-05-29T00:51:06.409Z,92.95
2019-05-29T00:53:40.697Z,93.33
2019-05-29T00:56:14.663Z,93.71
2019-05-29T00:58:47.214Z,94.03
2019-05-29T01:01:22.642Z,94.36
2019-05-29T01:03:58.646Z,94.65
2019-05-29T01:06:32.478Z,95.08
2019-05-29T01:09:07.502Z,95.25
2019-05-29T01:11:40.565Z,95.36
2019-05-29T01:14:15.152Z,95.32
2019-05-29T01:16:47.873Z,95.09
2019-05-29T01:19:24.482Z,94.97
2019-05-29T01:22:00.718Z,95.30
2019-05-29T01:24:35.124Z,95.41
2019-05-29T01:27:07.894Z,95.70
2019-05-29T01:29:40.530Z,95.91
2019-05-29T01:32:15.241Z,96.01
2019-05-29T01:34:50.047Z,96.41
2019-05-29T01:37:22.964Z,96.73
2019-05-29T01:39:55.554Z,96.52
2019-05-29T01:42:28.131Z,96.67
2019-05-29T01:45:07.548Z,96.35
2019-05-29T01:47:41.307Z,96.24
2019-05-29T01:50:15.589Z,95.84
2019-05-29T01:52:48.330Z,95.56
2019-05-29T01:55:21.737Z,95.59
2019-05-29T01:57:54.406Z,95.47
2019-05-29T02:00:28.577Z,95.62
2019-05-29T02:03:01.375Z,95.82
2019-05-29T02:05:33.952Z,95.86
2019-05-29T02:08:06.451Z,95.95
2019-05-29T02:10:39.109Z,95.95
2019-05-29T02:13:11.854Z,95.90
2019-05-29T02:15:45.250Z,96.14
2019-05-29T02:18:18.815Z,96.06
2019-05-29T02:20:51.583Z,96.29
2019-05-29T02:23:24.285Z,96.57
2019-05-29T02:25:58.023Z,96.53
2019-05-29T02:28:33.120Z,96.65
2019-05-29T02:31:05.887Z,96.73
2019-05-29T02:33:38.586Z,97.31
2019-05-29T02:36:11.178Z,97.83
2019-05-29T02:38:45.575Z,98.06
2019-05-29T02:41:19.669Z,98.15
2019-05-29T02:43:54.055Z,97.89
2019-05-29T02:46:28.560Z,98.13
2019-05-29T02:49:03.060Z,98.27
2019-05-29T02:51:38.644Z,98.24
2019-05-29T02:54:11.418Z,98.21
2019-05-29T02:56:44.253Z,98.00
2019-05-29T02:59:17.261Z,97.73
2019-05-29T03:01:50.008Z,97.78
2019-05-29T03:04:24.037Z,97.83
2019-05-29T03:06:57.401Z,98.29
2019-05-29T03:09:30.787Z,98.41
2019-05-29T03:12:04.396Z,98.53
2019-05-29T03:14:38.823Z,98.64
2019-05-29T03:17:11.656Z,98.77
2019-05-29T03:19:44.289Z,99.74
2019-05-29T03:22:16.864Z,100.00
2019-05-29T03:24:49.385Z,100.00
2019-05-29T03:27:22.031Z,100.00
2019-05-29T03:29:54.623Z,100.00
2019-05-29T03:32:30.645Z,100.00
2019-05-29T03:35:07.412Z,100.00
2019-05-29T03:37:40.635Z,100.00
2019-05-29T03:40:13.460Z,100.00
2019-05-29T03:42:46.122Z,100.00
2019-05-29T03:45:19.706Z,100.00
2019-05-29T03:47:52.459Z,100.00
2019-05-29T03:50:26.611Z,100.00
2019-05-29T03:53:01.297Z,100.00
2019-05-29T03:55:35.787Z,100.00
2019-05-29T03:58:08.651Z,100.00
2019-05-29T04:00:46.197Z,100.00
2019-05-29T04:03:20.935Z,100.00
2019-05-29T04:05:54.624Z,100.00
2019-05-29T04:08:29.281Z,100.00
2019-05-29T04:11:03.551Z,100.00
2019-05-29T04:13:38.899Z,100.00
2019-05-29T04:16:14.316Z,100.00
2019-05-29T04:18:50.066Z,100.00
2019-05-29T04:21:24.905Z,100.00
2019-05-29T04:24:01.550Z,100.00
2019-05-29T04:26:40.542Z,100.00
2019-05-29T04:29:13.890Z,100.00
2019-05-29T04:31:46.842Z,100.00
2019-05-29T04:34:19.610Z,100.00
2019-05-29T04:36:53.211Z,100.00
2019-05-29T04:39:25.860Z,100.00
2019-05-29T04:41:58.624Z,100.00
2019-05-29T04:44:55.815Z,100.00
2019-05-29T04:47:37.434Z,100.00
2019-05-29T04:50:13.019Z,100.00
2019-05-29T04:52:47.996Z,100.00
2019-05-29T04:55:21.789Z,100.00
2019-05-29T04:57:54.588Z,100.00
2019-05-29T05:00:29.085Z,100.00
2019-05-29T05:03:01.782Z,100.00
2019-05-29T05:05:37.991Z,100.00
2019-05-29T05:08:12.507Z,100.00
2019-05-29T05:10:45.870Z,100.00
2019-05-29T05:13:18.842Z,100.00
2019-05-29T05:15:54.976Z,100.00
2019-05-29T05:18:27.683Z,100.00
2019-05-29T05:21:02.449Z,100.00
2019-05-29T05:23:36.147Z,100.00
2019-05-29T05:26:08.832Z,99.67
2019-05-29T05:28:44.677Z,98.36
2019-05-29T05:31:19.461Z,96.93
2019-05-29T05:33:53.536Z,96.45
2019-05-29T05:36:26.255Z,95.08
2019-05-29T05:38:58.945Z,93.25
2019-05-29T05:41:32.767Z,92.53
2019-05-29T05:44:05.851Z,92.53
2019-05-29T05:46:39.204Z,92.83
2019-05-29T05:49:11.995Z,93.05
2019-05-29T05:51:44.812Z,93.00
2019-05-29T05:54:19.272Z,92.23
2019-05-29T05:56:53.779Z,90.75
2019-05-29T05:59:26.562Z,89.43
2019-05-29T06:01:59.155Z,88.34
2019-05-29T06:04:31.947Z,87.36
2019-05-29T06:07:06.859Z,86.46
2019-05-29T06:09:40.429Z,84.50
2019-05-29T06:12:13.175Z,83.30
2019-05-29T06:14:45.706Z,83.07
2019-05-29T06:17:21.757Z,80.05
2019-05-29T06:19:54.675Z,80.43
2019-05-29T06:22:28.280Z,80.53
2019-05-29T06:25:01.863Z,79.93
2019-05-29T06:27:41.345Z,79.78
2019-05-29T06:30:18.983Z,78.86
2019-05-29T06:32:58.485Z,78.48
2019-05-29T06:35:34.511Z,78.59
2019-05-29T06:38:12.461Z,78.50
2019-05-29T06:40:46.910Z,77.85
2019-05-29T06:43:24.114Z,76.60
2019-05-29T06:45:57.527Z,75.58
2019-05-29T06:48:46.137Z,74.15
2019-05-29T06:51:27.919Z,73.30
2019-05-29T06:54:03.660Z,72.71
2019-05-29T06:56:37.758Z,70.73
2019-05-29T06:59:10.899Z,69.06
2019-05-29T07:01:44.071Z,69.21
2019-05-29T07:04:18.315Z,69.37
2019-05-29T07:06:52.059Z,69.15
2019-05-29T07:09:25.628Z,67.36
2019-05-29T07:11:58.279Z,65.98
2019-05-29T07:14:30.994Z,65.82
2019-05-29T07:17:04.470Z,66.37
2019-05-29T07:19:49.088Z,65.48
2019-05-29T07:22:32.696Z,63.12
2019-05-29T07:25:14.221Z,61.18
2019-05-29T07:27:47.112Z,62.82
2019-05-29T07:30:22.285Z,63.98
2019-05-29T07:32:58.807Z,64.48
2019-05-29T07:35:31.900Z,63.71
2019-05-29T07:38:04.540Z,63.25
2019-05-29T07:40:38.386Z,59.37
2019-05-29T07:43:12.240Z,59.33
2019-05-29T07:45:46.137Z,56.52
2019-05-29T07:48:19.648Z,52.62
2019-05-29T07:51:06.260Z,50.60
2019-05-29T07:53:40.162Z,44.50
2019-05-29T07:56:22.668Z,41.08
2019-05-29T07:59:02.408Z,36.46
2019-05-29T08:01:36.396Z,36.62
2019-05-29T08:04:11.432Z,36.79
2019-05-29T08:06:52.337Z,36.99
2019-05-29T08:09:29.515Z,34.78
2019-05-29T08:12:02.322Z,35.34
2019-05-29T08:14:34.852Z,34.16
2019-05-29T08:17:09.160Z,34.84
2019-05-29T08:19:59.248Z,35.01
2019-05-29T08:22:42.286Z,34.46
2019-05-29T08:25:20.548Z,32.95
2019-05-29T08:28:03.164Z,33.40
2019-05-29T08:30:41.565Z,30.73
2019-05-29T08:33:18.172Z,31.35
2019-05-29T08:35:59.310Z,31.74
2019-05-29T08:38:37.625Z,30.95
2019-05-29T08:41:10.303Z,31.13
2019-05-29T08:43:46.963Z,30.82
2019-05-29T08:46:20.653Z,31.80
2019-05-29T08:48:54.715Z,32.32
2019-05-29T08:51:33.857Z,31.04
2019-05-29T08:54:23.543Z,30.79
2019-05-29T08:57:08.123Z,30.84
2019-05-29T08:59:46.407Z,31.49
2019-05-29T09:02:23.544Z,31.34
2019-05-29T09:04:57.817Z,30.60
2019-05-29T09:07:33.651Z,30.00
2019-05-29T09:10:08.455Z,29.93
2019-05-29T09:12:47.090Z,29.18
2019-05-29T09:15:29.165Z,28.78
2019-05-29T09:18:12.970Z,29.22
2019-05-29T09:21:01.800Z,28.91
2019-05-29T09:23:40.333Z,27.77
2019-05-29T09:26:19.836Z,27.54
2019-05-29T09:28:58.927Z,26.76
2019-05-29T09:31:37.460Z,27.67
2019-05-29T09:34:10.558Z,27.91
2019-05-29T09:36:43.746Z,27.59
2019-05-29T09:39:24.862Z,26.63
2019-05-29T09:42:00.213Z,25.80
2019-05-29T09:44:38.654Z,27.05
2019-05-29T09:47:13.141Z,26.74
2019-05-29T09:49:49.186Z,26.43
2019-05-29T09:52:25.078Z,26.62
2019-05-29T09:55:00.449Z,27.37
2019-05-29T09:57:34.607Z,27.08
2019-05-29T10:00:10.034Z,27.16
2019-05-29T10:02:45.729Z,27.61
2019-05-29T10:05:20.556Z,27.54
2019-05-29T10:07:56.302Z,27.20
2019-05-29T10:10:32.674Z,26.73
2019-05-29T10:13:06.182Z,26.90
2019-05-29T10:15:39.359Z,26.33
2019-05-29T10:18:31.465Z,25.86
2019-05-29T10:21:19.757Z,26.50
2019-05-29T10:23:56.229Z,26.16
2019-05-29T10:26:33.131Z,26.11
2019-05-29T10:29:10.022Z,26.03
2019-05-29T10:31:49.818Z,26.14
2019-05-29T10:34:34.034Z,26.13
2019-05-29T10:37:18.117Z,26.47
2019-05-29T10:39:53.635Z,25.80
2019-05-29T10:42:34.932Z,25.39
2019-05-29T10:45:18.529Z,25.01
2019-05-29T10:47:55.617Z,24.82
2019-05-29T10:50:38.760Z,24.79
2019-05-29T10:53:24.728Z,25.61
2019-05-29T10:55:58.455Z,25.86
2019-05-29T10:58:47.941Z,25.79
2019-05-29T11:01:26.428Z,26.03
2019-05-29T11:04:00.472Z,24.47
2019-05-29T11:06:34.103Z,24.60
2019-05-29T11:09:18.525Z,23.40
2019-05-29T11:11:57.734Z,22.76
2019-05-29T11:14:35.264Z,23.08
2019-05-29T11:17:10.983Z,22.37
2019-05-29T11:19:44.332Z,22.55
2019-05-29T11:22:26.235Z,23.30
2019-05-29T11:25:21.074Z,21.90
2019-05-29T11:27:56.770Z,21.89
2019-05-29T11:30:33.925Z,22.20
2019-05-29T11:33:10.718Z,22.42
2019-05-29T11:35:57.331Z,22.24
2019-05-29T11:38:40.024Z,23.15
2019-05-29T11:41:25.775Z,22.93
2019-05-29T11:44:07.197Z,23.05
2019-05-29T11:46:40.833Z,22.53
2019-05-29T11:49:14.646Z,22.26
2019-05-29T11:52:16.966Z,21.90
2019-05-29T11:54:59.962Z,20.35
2019-05-29T11:57:48.038Z,20.00
2019-05-29T12:00:21.527Z,19.88
2019-05-29T12:02:57.356Z,19.95
2019-05-29T12:05:33.458Z,19.61
2019-05-29T12:08:06.166Z,19.78
2019-05-29T12:10:39.026Z,20.83
2019-05-29T12:13:11.798Z,21.05
2019-05-29T12:15:45.388Z,22.14
2019-05-29T12:18:23.953Z,22.25
2019-05-29T12:20:58.543Z,21.60
2019-05-29T12:23:32.919Z,22.75
2019-05-29T12:26:23.362Z,23.98
2019-05-29T12:29:04.535Z,24.34
2019-05-29T12:31:43.717Z,24.48
2019-05-29T12:34:19.438Z,23.45
2019-05-29T12:36:55.426Z,23.39
2019-05-29T12:39:28.585Z,22.68
2019-05-29T12:42:01.786Z,22.93
2019-05-29T12:44:35.529Z,22.66
2019-05-29T12:47:09.532Z,22.65
2019-05-29T12:49:42.232Z,21.95
2019-05-29T12:52:14.818Z,21.93
2019-05-29T12:54:48.704Z,23.07
2019-05-29T12:57:23.624Z,23.32
2019-05-29T13:00:00.311Z,22.97
2019-05-29T13:02:35.321Z,21.99
2019-05-29T13:05:19.302Z,21.40
2019-05-29T13:07:54.708Z,20.91
2019-05-29T13:10:31.023Z,19.76
2019-05-29T13:13:12.586Z,19.78
2019-05-29T13:15:49.143Z,20.14
2019-05-29T13:18:21.756Z,21.51
2019-05-29T13:20:57.261Z,22.97
2019-05-29T13:23:44.621Z,23.42
2019-05-29T13:26:19.374Z,22.25
2019-05-29T13:28:52.969Z,21.58
2019-05-29T13:31:27.279Z,20.48
2019-05-29T13:34:02.081Z,20.01
2019-05-29T13:36:35.636Z,19.84
2019-05-29T13:39:10.246Z,20.10
2019-05-29T13:41:42.989Z,19.78
2019-05-29T13:44:15.854Z,21.32
2019-05-29T13:46:48.623Z,22.27
2019-05-29T13:49:21.460Z,21.91
2019-05-29T13:51:54.311Z,22.81
2019-05-29T13:54:28.612Z,21.79
2019-05-29T13:57:02.505Z,21.52
2019-05-29T13:59:36.054Z,21.96
2019-05-29T14:02:10.390Z,21.92
2019-05-29T14:04:44.129Z,20.97
2019-05-29T14:07:16.906Z,21.53
2019-05-29T14:09:51.297Z,21.83
2019-05-29T14:12:25.834Z,20.95
2019-05-29T14:14:59.938Z,20.33
2019-05-29T14:17:34.903Z,19.43
2019-05-29T14:20:09.176Z,19.24
2019-05-29T14:22:42.917Z,19.03
2019-05-29T14:25:16.519Z,18.46
2019-05-29T14:27:50.814Z,17.77
2019-05-29T14:30:26.694Z,18.18
2019-05-29T14:32:59.356Z,18.17
2019-05-29T14:35:34.258Z,19.00
2019-05-29T14:38:11.637Z,17.33
2019-05-29T14:40:47.433Z,17.60
2019-05-29T14:43:22.054Z,18.38
2019-05-29T14:46:03.924Z,19.29
2019-05-29T14:48:41.276Z,19.59
2019-05-29T14:51:25.638Z,21.39
2019-05-29T14:53:59.207Z,20.80
2019-05-29T14:56:32.232Z,20.36
2019-05-29T14:59:05.659Z,20.08
2019-05-29T15:01:41.580Z,20.70
2019-05-29T15:04:15.227Z,21.15
2019-05-29T15:06:48.609Z,22.77
2019-05-29T15:09:21.351Z,22.52
2019-05-29T15:11:54.052Z,21.75
2019-05-29T15:14:27.433Z,21.17
2019-05-29T15:17:02.137Z,20.98
2019-05-29T15:19:40.278Z,20.37
2019-05-29T15:22:14.503Z,21.33
2019-05-29T15:25:04.252Z,20.92
2019-05-29T15:27:46.345Z,21.12
2019-05-29T15:30:23.636Z,21.02
2019-05-29T15:33:01.812Z,21.66
2019-05-29T15:35:42.862Z,21.93
2019-05-29T15:38:38.229Z,22.19
2019-05-29T15:41:16.816Z,22.72
2019-05-29T15:44:13.286Z,21.64
2019-05-29T15:46:49.167Z,21.50
2019-05-29T15:49:23.286Z,21.68
2019-05-29T15:52:01.853Z,22.17
2019-05-29T15:54:43.232Z,23.22
2019-05-29T15:57:19.956Z,22.90
2019-05-29T15:59:53.837Z,22.15
2019-05-29T16:02:32.164Z,22.66
2019-05-29T16:05:06.942Z,23.15
2019-05-29T16:07:43.502Z,23.46
2019-05-29T16:10:21.533Z,23.20
2019-05-29T16:13:17.138Z,23.09
2019-05-29T16:15:51.370Z,24.10
2019-05-29T16:18:29.635Z,23.01
2019-05-29T16:21:04.626Z,22.92
2019-05-29T16:23:40.303Z,22.52
2019-05-29T16:26:13.352Z,21.88
2019-05-29T16:28:47.705Z,21.10
2019-05-29T16:31:23.049Z,21.12
2019-05-29T16:33:59.743Z,22.07
2019-05-29T16:36:40.297Z,21.83
2019-05-29T16:39:15.819Z,22.41
2019-05-29T16:41:55.032Z,21.59
2019-05-29T16:44:30.678Z,20.68
2019-05-29T16:47:07.465Z,20.31
2019-05-29T16:49:42.306Z,19.71
2019-05-29T16:52:24.295Z,19.72
2019-05-29T16:55:00.541Z,19.36
2019-05-29T16:57:34.235Z,18.81
2019-05-29T17:00:10.041Z,18.75
2019-05-29T17:02:52.608Z,19.05
2019-05-29T17:05:28.230Z,18.93
2019-05-29T17:08:02.767Z,19.76
2019-05-29T17:10:38.184Z,20.24
2019-05-29T17:13:16.619Z,20.39
2019-05-29T17:15:53.294Z,21.07
2019-05-29T17:18:26.992Z,21.14
2019-05-29T17:21:00.091Z,21.28
2019-05-29T17:23:37.476Z,21.37
2019-05-29T17:26:14.549Z,21.46
2019-05-29T17:28:50.288Z,21.79
2019-05-29T17:31:32.734Z,22.27
2019-05-29T17:34:13.306Z,22.39
2019-05-29T17:36:48.331Z,22.46
2019-05-29T17:39:25.135Z,22.60
2019-05-29T17:42:00.106Z,22.67
2019-05-29T17:44:35.332Z,22.86
2019-05-29T17:47:12.779Z,23.03
2019-05-29T17:49:53.487Z,22.99
2019-05-29T17:52:31.471Z,23.09
2019-05-29T17:55:23.286Z,23.42
2019-05-29T17:58:04.743Z,23.86
2019-05-29T18:00:37.471Z,24.17
2019-05-29T18:03:10.846Z,24.14
2019-05-29T18:05:46.277Z,24.65
2019-05-29T18:08:20.910Z,24.91
2019-05-29T18:10:53.761Z,25.02
2019-05-29T18:13:27.415Z,25.48
2019-05-29T18:16:02.209Z,25.94
2019-05-29T18:18:35.384Z,26.35
2019-05-29T18:21:08.165Z,26.57
2019-05-29T18:23:41.171Z,27.09
2019-05-29T18:26:15.002Z,26.87
2019-05-29T18:28:49.827Z,27.29
2019-05-29T18:31:24.389Z,27.54
2019-05-29T18:33:57.435Z,27.76
2019-05-29T18:36:31.380Z,28.83
2019-05-29T18:39:08.579Z,29.60
2019-05-29T18:41:41.244Z,30.03
2019-05-29T18:44:14.963Z,30.67
2019-05-29T18:46:47.714Z,31.27
2019-05-29T18:49:20.474Z,31.86
2019-05-29T18:51:53.027Z,32.36
2019-05-29T18:54:26.288Z,32.59
2019-05-29T18:57:14.594Z,32.94
2019-05-29T18:59:52.358Z,33.65
2019-05-29T19:02:25.383Z,34.18
2019-05-29T19:05:01.029Z,34.89
2019-05-29T19:07:35.344Z,35.18
2019-05-29T19:10:10.873Z,35.52
2019-05-29T19:12:50.831Z,35.72
2019-05-29T19:15:26.060Z,36.69
2019-05-29T19:18:01.309Z,37.05
2019-05-29T19:20:37.060Z,37.66
2019-05-29T19:23:09.787Z,39.95
2019-05-29T19:25:43.312Z,40.32
2019-05-29T19:28:17.179Z,41.09
2019-05-29T19:30:51.048Z,42.34
2019-05-29T19:33:27.392Z,43.39
2019-05-29T19:36:00.850Z,45.23
2019-05-29T19:38:34.213Z,47.22
2019-05-29T19:41:17.532Z,48.47
2019-05-29T19:43:51.680Z,49.50
2019-05-29T19:46:24.547Z,50.07
2019-05-29T19:49:05.403Z,51.32
2019-05-29T19:51:40.995Z,53.39
2019-05-29T19:54:18.796Z,52.54
2019-05-29T19:56:52.579Z,53.48
2019-05-29T19:59:26.192Z,53.47
2019-05-29T20:02:00.318Z,53.26
2019-05-29T20:04:42.878Z,53.24
2019-05-29T20:07:16.535Z,52.69
2019-05-29T20:09:50.071Z,52.08
2019-05-29T20:12:27.550Z,52.41
2019-05-29T20:15:07.839Z,52.26
2019-05-29T20:17:41.918Z,52.35
2019-05-29T20:20:15.184Z,53.31
2019-05-29T20:22:51.393Z,53.73
2019-05-29T20:25:27.045Z,53.88
2019-05-29T20:28:07.556Z,54.65
2019-05-29T20:30:40.457Z,55.54
2019-05-29T20:33:15.305Z,56.17
2019-05-29T20:35:53.554Z,56.53
2019-05-29T20:38:30.986Z,57.41
2019-05-29T20:41:05.450Z,58.90
2019-05-29T20:43:39.797Z,60.16
2019-05-29T20:46:16.837Z,60.44
2019-05-29T20:48:50.879Z,60.32
2019-05-29T20:51:24.284Z,60.78
2019-05-29T20:53:58.052Z,61.56
2019-05-29T20:56:31.657Z,62.44
2019-05-29T20:59:07.125Z,61.68
2019-05-29T21:02:26.569Z,61.39
2019-05-29T21:05:02.212Z,61.20
2019-05-29T21:07:54.177Z,61.05
2019-05-29T21:10:27.631Z,60.79
2019-05-29T21:13:01.286Z,60.51
2019-05-29T21:15:35.573Z,60.21
2019-05-29T21:18:08.985Z,60.06
2019-05-29T21:20:45.575Z,60.78
2019-05-29T21:23:18.235Z,60.60
2019-05-29T21:25:52.118Z,60.76
2019-05-29T21:28:39.868Z,62.88
2019-05-29T21:31:21.216Z,63.01
2019-05-29T21:33:56.013Z,64.77
2019-05-29T21:36:29.583Z,64.68
2019-05-29T21:39:08.782Z,64.79
2019-05-29T21:41:42.565Z,66.14
2019-05-29T21:44:17.618Z,65.84
2019-05-29T21:46:57.593Z,65.80
2019-05-29T21:49:32.398Z,65.76
2019-05-29T21:52:06.586Z,65.81
2019-05-29T21:54:39.393Z,65.80
2019-05-29T21:57:13.003Z,65.83
2019-05-29T21:59:48.091Z,65.83
2019-05-29T22:02:21.847Z,65.87
2019-05-29T22:04:54.488Z,65.72
2019-05-29T22:07:27.905Z,65.23
2019-05-29T22:10:01.035Z,64.65
2019-05-29T22:12:35.956Z,63.54
2019-05-29T22:15:23.574Z,62.59
2019-05-29T22:17:57.538Z,61.21
2019-05-29T22:20:32.335Z,60.02
2019-05-29T22:23:14.303Z,59.16
2019-05-29T22:25:47.055Z,58.54
2019-05-29T22:28:21.457Z,58.55
2019-05-29T22:30:57.353Z,58.82
2019-05-29T22:33:34.788Z,58.63
2019-05-29T22:36:11.505Z,58.54
2019-05-29T22:38:46.701Z,58.41
2019-05-29T22:41:25.214Z,57.75
2019-05-29T22:44:02.500Z,57.27
2019-05-29T22:46:35.507Z,56.70
2019-05-29T22:49:09.273Z,55.93
2019-05-29T22:51:44.307Z,55.39
2019-05-29T22:54:17.012Z,55.01
2019-05-29T22:56:49.576Z,54.67
2019-05-29T22:59:31.932Z,54.53
2019-05-29T23:02:07.866Z,54.24
2019-05-29T23:04:44.042Z,54.18
2019-05-29T23:07:21.463Z,54.13
2019-05-29T23:12:53.012Z,54.12
2019-05-29T23:15:28.375Z,53.76
2019-05-29T23:18:00.992Z,53.31
2019-05-29T23:20:36.725Z,52.61
2019-05-29T23:23:09.382Z,52.58
2019-05-29T23:25:40.978Z,52.33
2019-05-29T23:28:13.390Z,52.23
2019-05-29T23:30:45.258Z,52.12
2019-05-29T23:33:18.642Z,51.93
2019-05-29T23:35:51.391Z,51.83
2019-05-29T23:38:23.554Z,51.81
2019-05-29T23:40:57.406Z,51.86
2019-05-29T23:43:29.274Z,52.13
2019-05-29T23:46:02.481Z,52.30
2019-05-29T23:48:37.069Z,52.27
2019-05-29T23:51:08.930Z,52.38
2019-05-29T23:53:53.779Z,52.51
2019-05-29T23:56:26.245Z,52.57
2019-05-29T23:58:57.912Z,52.78
